Time;durP1;ratioP1;P1;durP2;ratioP2;P2;SDS_P1;SDS_P2;PMS_P1;PMS_P2;Temp;Humidity;BMP_temperature;BMP_pressure;BME280_temperature;BME280_humidity;BME280_pressure;Samples;Min_cycle;Max_cycle;Signal;HPM_P1;HPM_P2
2022/11/23 00:02:15;;;;;;;0.32;0.10;;;;;;;11.29;38.76;96665.38;5113721;27;20319;-63
2022/11/23 00:04:41;;;;;;;0.85;0.20;;;;;;;11.17;37.55;96661.78;5095703;28;21095;-61
2022/11/23 00:07:06;;;;;;;0.47;0.10;;;;;;;11.24;38.90;96680.78;5095423;28;20114;-61
2022/11/23 00:09:32;;;;;;;1.20;0.20;;;;;;;11.26;37.96;96673.59;5076808;28;20068;-62
2022/11/23 00:11:57;;;;;;;0.55;0.20;;;;;;;11.30;38.75;96677.41;5094548;28;20138;-61
2022/11/23 00:14:23;;;;;;;0.20;0.10;;;;;;;11.14;38.94;96683.75;5091859;28;20063;-61
2022/11/23 00:16:48;;;;;;;0.55;0.20;;;;;;;11.18;37.47;96685.97;5076053;28;20142;-60
2022/11/23 00:19:13;;;;;;;0.57;0.20;;;;;;;11.20;38.99;96676.19;5085603;28;20135;-60
2022/11/23 00:21:39;;;;;;;0.10;0.10;;;;;;;11.04;37.60;96662.50;5094781;28;20363;-61
2022/11/23 00:24:04;;;;;;;0.43;0.20;;;;;;;11.37;36.90;96692.22;5093634;27;20020;-61
2022/11/23 00:26:30;;;;;;;0.40;0.17;;;;;;;11.11;37.96;96636.53;5100033;28;20042;-61
2022/11/23 00:28:55;;;;;;;0.10;0.10;;;;;;;11.22;35.08;96655.97;5101525;28;20112;-61
2022/11/23 00:31:21;;;;;;;0.28;0.20;;;;;;;11.44;35.11;96680.81;5100475;28;20077;-62
2022/11/23 00:33:54;;;;;;;0.40;0.10;;;;;;;11.29;35.52;96698.41;5099352;28;20733;-62
2022/11/23 00:36:20;;;;;;;0.35;0.25;;;;;;;11.38;37.03;96683.44;5094113;28;20616;-61
2022/11/23 00:38:46;;;;;;;1.02;0.10;;;;;;;11.26;39.40;96693.59;5102020;28;20028;-62
2022/11/23 00:41:14;;;;;;;0.63;0.20;;;;;;;11.19;39.05;96697.97;5098747;28;20034;-61
2022/11/23 00:43:39;;;;;;;0.35;0.10;;;;;;;11.22;35.31;96700.19;5099198;28;20020;-61
2022/11/23 00:46:06;;;;;;;0.20;0.10;;;;;;;11.19;37.14;96696.19;5094944;28;20656;-62
2022/11/23 00:48:32;;;;;;;0.52;0.13;;;;;;;11.16;39.09;96699.97;5114784;27;20096;-60
2022/11/23 00:50:59;;;;;;;0.32;0.13;;;;;;;10.93;38.84;96660.47;5116240;27;20531;-61
2022/11/23 00:53:24;;;;;;;0.35;0.20;;;;;;;10.99;34.77;96721.31;5097273;28;20053;-62
2022/11/23 00:55:51;;;;;;;0.25;0.10;;;;;;;10.89;32.03;96712.06;5095959;28;20036;-61
2022/11/23 00:58:17;;;;;;;0.50;0.20;;;;;;;10.94;33.80;96729.69;5096442;28;20030;-62
2022/11/23 01:00:43;;;;;;;0.40;0.10;;;;;;;11.01;36.96;96727.94;5091549;27;20413;-61
2022/11/23 01:03:08;;;;;;;0.20;0.20;;;;;;;10.93;35.80;96730.69;5114061;27;20028;-62
2022/11/23 01:05:37;;;;;;;1.15;0.30;;;;;;;10.80;37.01;96720.22;5099397;28;20043;-62
2022/11/23 01:08:04;;;;;;;0.47;0.20;;;;;;;10.76;34.46;96706.81;5095195;28;20524;-61
2022/11/23 01:10:30;;;;;;;0.10;0.10;;;;;;;10.87;32.01;96734.06;5110267;27;20343;-61
2022/11/23 01:12:56;;;;;;;0.60;0.20;;;;;;;10.94;36.51;96740.09;5089763;28;20494;-63
2022/11/23 01:15:21;;;;;;;0.38;0.10;;;;;;;10.95;34.41;96737.31;5076874;28;20482;-60
2022/11/23 01:17:47;;;;;;;0.80;0.20;;;;;;;10.82;33.18;96747.63;5074667;28;20073;-62
2022/11/23 01:20:12;;;;;;;0.60;0.20;;;;;;;10.73;34.63;96735.78;5098291;28;20090;-61
2022/11/23 01:22:38;;;;;;;0.10;0.10;;;;;;;10.36;33.61;96701.38;5101703;28;20031;-61
2022/11/23 01:25:03;;;;;;;0.47;0.10;;;;;;;10.60;36.06;96751.28;5093986;28;20085;-62
2022/11/23 01:27:29;;;;;;;0.50;0.20;;;;;;;10.51;37.54;96743.66;5081874;28;20123;-61
2022/11/23 01:29:54;;;;;;;0.10;0.10;;;;;;;10.44;36.09;96747.19;5097886;28;20055;-62
2022/11/23 01:32:19;;;;;;;0.47;0.13;;;;;;;10.44;34.21;96742.81;5115519;27;20115;-63
2022/11/23 01:34:45;;;;;;;0.30;0.10;;;;;;;10.40;34.64;96744.16;5089660;28;20039;-62
2022/11/23 01:37:10;;;;;;;0.30;0.10;;;;;;;10.26;33.12;96719.03;5094189;28;20038;-61
2022/11/23 01:39:36;;;;;;;0.30;0.15;;;;;;;10.27;32.92;96716.25;5118692;27;20066;-66
2022/11/23 01:42:05;;;;;;;0.10;0.10;;;;;;;10.31;32.18;96721.91;5095293;28;20080;-62
2022/11/23 01:44:32;;;;;;;0.33;0.10;;;;;;;10.61;32.56;96761.50;5074534;28;20058;-61
2022/11/23 01:47:00;;;;;;;0.25;0.15;;;;;;;10.73;39.15;96765.19;5082515;28;20399;-62
2022/11/23 01:49:28;;;;;;;1.02;0.40;;;;;;;10.50;37.27;96723.06;5117106;27;20111;-61
2022/11/23 01:51:56;;;;;;;0.70;0.20;;;;;;;10.75;37.01;96764.97;5100208;28;20028;-61
2022/11/23 01:54:27;;;;;;;0.45;0.20;;;;;;;10.58;34.91;96757.47;5098013;28;20078;-61
2022/11/23 01:57:01;;;;;;;0.47;0.15;;;;;;;10.50;36.04;96762.81;5083539;28;20497;-62
2022/11/23 01:59:27;;;;;;;1.17;0.20;;;;;;;10.54;36.15;96771.03;5094069;28;20442;-62
2022/11/23 02:01:53;;;;;;;0.55;0.20;;;;;;;10.43;33.73;96763.78;5108992;27;20127;-61
2022/11/23 02:04:24;;;;;;;0.65;0.20;;;;;;;10.39;33.31;96769.34;5112770;27;20463;-62
2022/11/23 02:06:49;;;;;;;0.10;0.00;;;;;;;10.27;33.71;96759.63;5093096;28;20040;-61
2022/11/23 02:09:16;;;;;;;0.38;0.10;;;;;;;10.31;33.45;96761.69;5095167;28;20140;-62
2022/11/23 02:11:41;;;;;;;0.88;0.20;;;;;;;10.20;32.97;96769.94;5100405;28;20057;-63
2022/11/23 02:14:07;;;;;;;0.47;0.20;;;;;;;10.19;33.52;96783.94;5096134;28;20031;-62
2022/11/23 02:16:32;;;;;;;0.45;0.10;;;;;;;10.22;32.91;96783.53;5097718;28;20034;-61
2022/11/23 02:18:58;;;;;;;0.55;0.20;;;;;;;10.27;32.42;96783.00;5082039;28;20035;-61
2022/11/23 02:21:24;;;;;;;0.45;0.20;;;;;;;10.20;32.73;96796.75;5099792;28;20037;-63
2022/11/23 02:24:39;;;;;;;0.20;0.10;;;;;;;10.25;34.41;96806.56;5100292;28;20024;-60
2022/11/23 02:27:06;;;;;;;0.43;0.10;;;;;;;10.20;34.32;96804.53;5096702;28;20097;-61
2022/11/23 02:29:33;;;;;;;0.38;0.13;;;;;;;10.10;33.82;96806.63;5093773;28;20031;-62
2022/11/23 02:31:59;;;;;;;0.08;0.08;;;;;;;10.08;34.65;96816.41;5094976;28;20063;-62
2022/11/23 02:34:24;;;;;;;0.20;0.20;;;;;;;10.07;34.59;96817.38;5079178;28;20169;-62
2022/11/23 02:36:54;;;;;;;0.30;0.20;;;;;;;10.01;34.51;96794.75;5112555;27;20320;-61
2022/11/23 02:39:27;;;;;;;0.40;0.20;;;;;;;9.82;35.16;96784.00;5079023;28;20069;-62
2022/11/23 02:41:53;;;;;;;0.57;0.20;;;;;;;9.85;34.85;96792.41;5095000;28;20338;-60
2022/11/23 02:44:57;;;;;;;0.20;0.20;;;;;;;10.01;35.33;96812.94;5093606;27;20599;-61
2022/11/23 02:47:22;;;;;;;0.40;0.20;;;;;;;9.67;36.00;96780.63;5091919;28;20069;-61
2022/11/23 02:49:48;;;;;;;0.38;0.17;;;;;;;9.82;34.86;96815.16;5096173;28;20154;-62
2022/11/23 02:52:14;;;;;;;0.20;0.10;;;;;;;9.84;35.90;96819.34;5095078;28;20089;-62
2022/11/23 02:54:39;;;;;;;0.10;0.10;;;;;;;9.78;34.85;96816.50;5091380;28;20478;-62
2022/11/23 02:57:05;;;;;;;0.20;0.10;;;;;;;9.75;35.60;96803.09;5093985;28;20039;-61
2022/11/23 02:59:31;;;;;;;0.40;0.10;;;;;;;9.68;35.55;96815.19;5100677;27;20364;-61
2022/11/23 03:01:57;;;;;;;1.35;0.40;;;;;;;9.78;35.99;96813.91;5097046;28;20050;-62
2022/11/23 03:04:23;;;;;;;1.17;0.30;;;;;;;9.66;36.50;96820.56;5090931;28;20032;-61
2022/11/23 03:06:48;;;;;;;0.20;0.17;;;;;;;9.62;36.76;96824.50;5109113;27;20062;-62
2022/11/23 03:09:14;;;;;;;0.10;0.10;;;;;;;9.37;37.26;96791.09;5098227;28;20836;-61
2022/11/23 03:11:39;;;;;;;0.47;0.20;;;;;;;9.49;36.75;96821.75;5098069;28;20039;-61
2022/11/23 03:14:05;;;;;;;0.95;0.10;;;;;;;9.40;36.95;96821.84;5096075;28;20035;-61
2022/11/23 03:16:32;;;;;;;0.30;0.10;;;;;;;9.46;36.04;96809.94;5094905;28;20807;-61
2022/11/23 03:18:57;;;;;;;0.43;0.10;;;;;;;9.62;35.42;96825.31;5099128;28;20066;-62
2022/11/23 03:21:22;;;;;;;0.45;0.20;;;;;;;9.78;36.81;96826.91;5111585;27;20077;-61
2022/11/23 03:23:48;;;;;;;0.98;0.25;;;;;;;9.79;37.32;96818.09;5100174;28;20533;-61
2022/11/23 03:26:13;;;;;;;0.40;0.20;;;;;;;9.75;36.21;96819.47;5095111;28;20053;-61
2022/11/23 03:28:39;;;;;;;0.70;0.30;;;;;;;9.92;35.68;96834.81;5095005;28;20024;-61
2022/11/23 03:31:04;;;;;;;0.52;0.20;;;;;;;9.85;35.30;96829.53;5093452;28;20027;-60
2022/11/23 03:33:30;;;;;;;0.80;0.20;;;;;;;9.86;35.59;96818.19;5107457;27;20059;-61
2022/11/23 03:35:55;;;;;;;0.93;0.30;;;;;;;9.74;34.97;96807.47;5092553;28;20027;-61
2022/11/23 03:38:21;;;;;;;0.20;0.10;;;;;;;9.85;35.20;96832.13;5096575;28;20047;-60
2022/11/23 03:40:46;;;;;;;0.25;0.10;;;;;;;9.88;35.38;96833.56;5096165;28;20493;-61
2022/11/23 03:43:13;;;;;;;0.88;0.30;;;;;;;9.88;35.82;96839.56;5083696;28;20032;-61
2022/11/23 03:45:38;;;;;;;0.50;0.10;;;;;;;9.80;35.83;96830.09;5075423;28;20765;-62
2022/11/23 03:48:04;;;;;;;0.38;0.20;;;;;;;9.44;36.40;96785.97;5113416;27;20028;-62
2022/11/23 03:50:30;;;;;;;0.25;0.20;;;;;;;9.58;36.48;96810.28;5097995;28;20092;-61
2022/11/23 03:52:56;;;;;;;0.70;0.20;;;;;;;9.72;36.83;96825.00;5093636;28;20669;-61
2022/11/23 03:55:21;;;;;;;0.30;0.10;;;;;;;9.72;36.34;96827.59;5091912;28;20509;-62
2022/11/23 03:57:47;;;;;;;0.30;0.20;;;;;;;9.65;36.91;96818.16;5095469;28;20047;-62
2022/11/23 04:00:14;;;;;;;0.13;0.10;;;;;;;9.34;36.99;96791.44;5115629;27;20505;-61
2022/11/23 04:02:39;;;;;;;1.27;0.22;;;;;;;9.13;38.51;96778.44;5082645;28;20131;-61
2022/11/23 04:05:06;;;;;;;0.75;0.20;;;;;;;9.21;39.14;96822.41;5091812;28;20552;-61
2022/11/23 04:07:31;;;;;;;0.68;0.20;;;;;;;9.04;40.86;96814.81;5090897;28;20036;-62
2022/11/23 04:09:57;;;;;;;0.45;0.20;;;;;;;9.03;40.30;96825.34;5095635;28;20088;-61
2022/11/23 04:12:23;;;;;;;0.45;0.20;;;;;;;8.86;40.59;96829.91;5108583;27;20030;-60
2022/11/23 04:14:48;;;;;;;0.77;0.20;;;;;;;8.90;39.78;96823.38;5116398;27;20050;-61
2022/11/23 04:17:14;;;;;;;0.98;0.28;;;;;;;8.78;39.05;96811.81;5090388;28;20106;-62
2022/11/23 04:19:40;;;;;;;1.10;0.20;;;;;;;8.85;41.93;96816.16;5090367;28;20480;-62
2022/11/23 04:22:06;;;;;;;0.10;0.10;;;;;;;8.90;39.58;96813.00;5094747;28;20027;-62
2022/11/23 04:24:31;;;;;;;1.38;0.30;;;;;;;8.88;45.27;96796.84;5076950;28;20142;-61
2022/11/23 04:26:56;;;;;;;0.10;0.10;;;;;;;8.87;47.85;96818.56;5095307;28;20545;-61
2022/11/23 04:29:22;;;;;;;0.17;0.13;;;;;;;8.70;49.55;96823.09;5108681;28;20044;-61
2022/11/23 04:31:47;;;;;;;0.98;0.38;;;;;;;8.55;50.44;96833.41;5079496;28;20032;-60
2022/11/23 04:34:13;;;;;;;1.00;0.30;;;;;;;8.43;51.04;96837.41;5092711;28;20334;-60
2022/11/23 04:36:38;;;;;;;0.88;0.20;;;;;;;8.04;49.76;96789.94;5077036;28;20138;-61
2022/11/23 04:39:04;;;;;;;0.93;0.17;;;;;;;8.19;49.82;96830.59;5090793;28;20039;-59
2022/11/23 04:41:29;;;;;;;0.25;0.10;;;;;;;8.07;48.18;96838.78;5094290;28;20059;-60
2022/11/23 04:43:54;;;;;;;0.98;0.30;;;;;;;7.92;47.86;96843.06;5073873;28;20047;-61
2022/11/23 04:46:20;;;;;;;1.27;0.30;;;;;;;7.93;47.88;96844.69;5097727;28;20039;-60
2022/11/23 04:48:46;;;;;;;0.75;0.30;;;;;;;7.94;46.69;96841.13;5093115;28;20036;-61
2022/11/23 04:51:12;;;;;;;1.20;0.30;;;;;;;8.07;48.67;96848.31;5111344;27;20549;-60
2022/11/23 04:53:37;;;;;;;0.93;0.20;;;;;;;8.10;48.82;96845.38;5094606;28;20059;-60
2022/11/23 04:56:03;;;;;;;0.80;0.30;;;;;;;8.15;49.42;96853.44;5097523;28;20693;-61
2022/11/23 04:58:28;;;;;;;1.63;0.35;;;;;;;7.65;50.04;96777.09;5094768;28;20032;-60
2022/11/23 05:00:54;;;;;;;1.10;0.40;;;;;;;8.04;49.69;96854.63;5080717;28;20677;-61
2022/11/23 05:03:19;;;;;;;1.65;0.40;;;;;;;8.02;50.35;96850.63;5093567;28;20054;-61
2022/11/23 05:05:45;;;;;;;1.45;0.43;;;;;;;8.00;50.25;96855.97;5090211;28;20035;-60
2022/11/23 05:08:10;;;;;;;1.38;0.40;;;;;;;8.02;51.69;96859.19;5090828;28;20072;-61
2022/11/23 05:10:36;;;;;;;1.15;0.40;;;;;;;7.83;51.66;96852.69;5104746;27;20028;-62
2022/11/23 05:13:02;;;;;;;2.28;0.68;;;;;;;7.75;51.40;96842.34;5113565;27;20044;-62
2022/11/23 05:15:28;;;;;;;2.05;0.60;;;;;;;7.76;51.79;96854.31;5082708;28;20043;-61
2022/11/23 05:17:59;;;;;;;3.80;0.90;;;;;;;7.48;53.06;96847.03;5120413;27;20031;-62
2022/11/23 05:20:25;;;;;;;2.55;0.60;;;;;;;7.44;52.94;96858.66;5100367;28;20030;-61
2022/11/23 05:22:50;;;;;;;2.50;0.60;;;;;;;7.44;53.33;96863.03;5100257;28;20035;-61
2022/11/23 05:25:16;;;;;;;1.73;0.60;;;;;;;7.39;53.51;96867.88;5098188;28;20031;-61
2022/11/23 05:27:41;;;;;;;4.47;0.60;;;;;;;7.33;53.99;96861.59;5093107;28;20086;-61
2022/11/23 05:30:07;;;;;;;1.35;0.47;;;;;;;7.39;52.67;96867.88;5093633;28;20103;-62
2022/11/23 05:32:32;;;;;;;2.85;0.70;;;;;;;7.19;54.57;96839.03;5092992;28;20024;-62
2022/11/23 05:34:58;;;;;;;3.33;0.43;;;;;;;7.42;54.28;96870.16;5098271;28;20047;-61
2022/11/23 05:37:23;;;;;;;1.73;0.45;;;;;;;7.49;54.80;96868.50;5091814;28;20535;-62
2022/11/23 05:39:49;;;;;;;2.90;0.60;;;;;;;7.45;56.08;96875.78;5092673;28;20020;-62
2022/11/23 05:42:14;;;;;;;1.15;0.45;;;;;;;7.41;56.01;96881.47;5085004;28;20089;-62
2022/11/23 05:44:39;;;;;;;1.55;0.40;;;;;;;7.20;56.48;96833.69;5078591;28;20055;-62
2022/11/23 05:47:05;;;;;;;1.27;0.38;;;;;;;7.47;57.21;96884.19;5094245;28;20035;-62
2022/11/23 05:49:30;;;;;;;2.17;0.60;;;;;;;7.20;57.00;96848.41;5079648;27;20213;-61
2022/11/23 05:51:56;;;;;;;3.80;1.10;;;;;;;7.03;56.50;96889.81;5096668;27;20039;-62
2022/11/23 05:54:21;;;;;;;3.30;0.80;;;;;;;7.10;57.93;96882.19;5100994;28;20032;-62
2022/11/23 05:56:47;;;;;;;4.22;1.00;;;;;;;7.09;57.02;96878.00;5100729;28;20032;-62
2022/11/23 05:59:12;;;;;;;3.05;0.75;;;;;;;7.15;57.31;96886.88;5097564;28;20636;-61
2022/11/23 06:01:38;;;;;;;10.55;3.20;;;;;;;7.00;58.93;96863.47;5101500;28;20444;-62
2022/11/23 06:04:05;;;;;;;16.08;6.13;;;;;;;7.18;59.19;96900.28;5096792;28;20107;-61
2022/11/23 06:06:30;;;;;;;5.85;2.03;;;;;;;6.93;58.84;96892.53;5125980;27;20038;-62
2022/11/23 06:08:56;;;;;;;5.55;1.30;;;;;;;6.90;59.52;96910.19;5092655;28;20039;-62
2022/11/23 06:11:21;;;;;;;4.97;1.27;;;;;;;6.97;59.56;96918.88;5117389;27;20036;-62
2022/11/23 06:13:47;;;;;;;4.85;1.40;;;;;;;6.89;59.10;96929.22;5096914;28;20042;-62
2022/11/23 06:16:13;;;;;;;4.47;1.02;;;;;;;6.65;59.06;96940.38;5094151;28;20044;-63
2022/11/23 06:18:38;;;;;;;3.80;1.15;;;;;;;6.71;59.11;96943.09;5078989;28;20538;-61
2022/11/23 06:21:04;;;;;;;3.20;0.88;;;;;;;6.78;59.50;96947.63;5092937;28;20090;-62
2022/11/23 06:23:29;;;;;;;5.47;1.30;;;;;;;6.80;59.02;96950.88;5094511;28;20039;-63
2022/11/23 06:25:58;;;;;;;5.38;0.95;;;;;;;6.70;60.23;96962.16;5113934;27;20053;-66
2022/11/23 06:28:24;;;;;;;2.45;0.70;;;;;;;6.46;60.57;96964.69;5098671;27;20142;-65
2022/11/23 06:30:49;;;;;;;4.50;1.30;;;;;;;6.41;60.70;96969.56;5094958;27;20111;-66
2022/11/23 06:33:15;;;;;;;7.22;1.98;;;;;;;6.37;60.95;96965.66;5111608;27;20217;-64
2022/11/23 06:35:40;;;;;;;8.73;2.63;;;;;;;6.29;61.12;96969.03;5095010;28;20033;-65
2022/11/23 06:38:06;;;;;;;9.23;2.88;;;;;;;6.09;62.20;96989.13;5077391;28;20047;-65
2022/11/23 06:40:31;;;;;;;11.52;3.92;;;;;;;5.81;61.65;96949.84;5075778;28;20035;-66
2022/11/23 06:42:58;;;;;;;12.35;3.33;;;;;;;6.22;61.05;97001.59;5097977;28;20032;-64
2022/11/23 06:45:24;;;;;;;12.38;2.97;;;;;;;6.28;61.70;97021.59;5069334;28;20103;-66
2022/11/23 06:47:49;;;;;;;12.68;4.22;;;;;;;6.21;61.90;97018.06;5100326;28;20024;-65
2022/11/23 06:50:15;;;;;;;11.15;3.72;;;;;;;5.83;62.08;97026.09;5077221;28;20035;-64
2022/11/23 06:52:40;;;;;;;8.02;2.95;;;;;;;5.77;61.76;97035.25;5091582;27;20028;-65
2022/11/23 06:55:06;;;;;;;7.50;2.78;;;;;;;5.47;61.83;97000.41;5095793;28;20702;-65
2022/11/23 06:57:31;;;;;;;8.40;2.45;;;;;;;5.90;62.16;97050.31;5108163;27;20028;-66
2022/11/23 06:59:57;;;;;;;6.80;2.60;;;;;;;6.04;61.91;97046.38;5101978;27;20032;-65
2022/11/23 07:02:22;;;;;;;5.60;2.20;;;;;;;6.02;60.25;97055.22;5086393;28;20036;-65
2022/11/23 07:04:50;;;;;;;5.38;1.98;;;;;;;6.00;60.28;97059.72;5099517;28;20062;-65
2022/11/23 07:07:15;;;;;;;7.50;1.90;;;;;;;5.96;60.65;97056.66;5096873;28;20020;-66
2022/11/23 07:09:41;;;;;;;8.77;1.70;;;;;;;5.77;60.94;97055.06;5101759;28;20452;-66
2022/11/23 07:12:07;;;;;;;6.53;2.20;;;;;;;5.71;62.22;97058.25;5094130;28;20493;-65
2022/11/23 07:14:32;;;;;;;5.43;2.15;;;;;;;5.41;62.37;97016.50;5073692;28;20583;-66
2022/11/23 07:16:57;;;;;;;6.03;2.10;;;;;;;5.68;61.92;97063.72;5100579;28;20035;-65
2022/11/23 07:19:23;;;;;;;13.73;2.92;;;;;;;5.65;63.24;97082.88;5116876;27;20146;-66
2022/11/23 07:21:48;;;;;;;9.05;2.28;;;;;;;5.53;62.53;97053.97;5095385;28;20380;-65
2022/11/23 07:24:13;;;;;;;10.15;2.05;;;;;;;5.83;64.23;97076.88;5080888;28;20118;-66
2022/11/23 07:26:39;;;;;;;13.25;2.30;;;;;;;5.88;63.90;97084.97;5075424;28;20580;-65
2022/11/23 07:29:04;;;;;;;8.10;2.00;;;;;;;5.83;63.02;97085.41;5082950;28;20458;-64
2022/11/23 07:31:30;;;;;;;11.52;2.13;;;;;;;5.84;64.31;97079.31;5097542;28;20062;-65
2022/11/23 07:33:55;;;;;;;9.55;2.42;;;;;;;5.61;64.37;97040.31;5091590;28;20043;-66
2022/11/23 07:36:21;;;;;;;13.45;2.05;;;;;;;5.82;65.59;97070.88;5091307;28;20495;-66
2022/11/23 07:38:46;;;;;;;9.38;2.30;;;;;;;5.83;65.91;97082.84;5095387;28;20035;-66
2022/11/23 07:41:12;;;;;;;7.90;2.20;;;;;;;5.74;65.38;97081.97;5098566;28;20610;-64
2022/11/23 07:43:37;;;;;;;8.20;2.33;;;;;;;5.77;65.34;97084.25;5093659;28;20050;-67
2022/11/23 07:46:02;;;;;;;12.45;2.30;;;;;;;5.64;66.48;97072.69;5068369;28;20642;-66
2022/11/23 07:48:28;;;;;;;5.47;2.53;;;;;;;5.55;66.47;97084.75;5075584;28;20032;-65
2022/11/23 07:50:54;;;;;;;12.48;2.97;;;;;;;5.66;67.53;97088.81;5080572;28;20043;-65
2022/11/23 07:53:19;;;;;;;9.45;2.90;;;;;;;5.54;66.19;97059.91;5077962;28;20043;-68
2022/11/23 07:55:45;;;;;;;7.45;2.80;;;;;;;5.65;66.82;97085.44;5115085;27;20031;-65
2022/11/23 07:58:10;;;;;;;9.20;2.97;;;;;;;5.55;66.32;97080.41;5094593;28;20023;-66
2022/11/23 08:00:36;;;;;;;7.32;3.22;;;;;;;5.27;66.52;97089.19;5074238;27;20020;-67
2022/11/23 08:03:02;;;;;;;8.35;2.72;;;;;;;5.47;68.59;97102.72;5099533;28;20111;-65
2022/11/23 08:05:27;;;;;;;10.65;3.47;;;;;;;5.45;70.21;97097.72;5107112;27;20034;-66
2022/11/23 08:07:59;;;;;;;11.73;3.08;;;;;;;5.39;68.07;97091.38;5095224;28;20063;-65
2022/11/23 08:10:29;;;;;;;8.05;3.35;;;;;;;5.47;69.41;97092.41;5103095;27;20040;-64
2022/11/23 08:12:59;;;;;;;7.57;2.65;;;;;;;5.17;69.78;97063.50;5097281;28;20065;-68
2022/11/23 08:15:26;;;;;;;9.55;3.00;;;;;;;5.29;71.00;97103.53;5090967;28;20032;-65
2022/11/23 08:18:00;;;;;;;13.45;3.70;;;;;;;5.58;71.14;97113.63;5091098;28;20035;-65
2022/11/23 08:20:26;;;;;;;9.98;2.67;;;;;;;5.49;68.84;97111.91;5094676;28;20020;-65
2022/11/23 08:22:54;;;;;;;7.50;2.80;;;;;;;5.34;69.95;97124.53;5077075;28;20028;-65
2022/11/23 08:25:21;;;;;;;7.57;2.60;;;;;;;5.37;70.57;97088.16;5075539;28;20055;-65
2022/11/23 08:27:46;;;;;;;9.82;3.05;;;;;;;5.56;72.01;97117.28;5098194;28;20548;-65
2022/11/23 08:30:12;;;;;;;6.93;2.70;;;;;;;5.60;73.04;97118.59;5096426;28;20069;-65
2022/11/23 08:32:38;;;;;;;13.52;2.78;;;;;;;5.68;72.25;97115.31;5073685;28;20024;-65
2022/11/23 08:35:03;;;;;;;6.93;2.63;;;;;;;5.65;72.25;97118.97;5094895;28;20597;-66
2022/11/23 08:37:29;;;;;;;10.13;3.10;;;;;;;5.77;72.64;97116.97;5080320;28;20501;-63
2022/11/23 08:39:54;;;;;;;9.90;2.70;;;;;;;5.70;71.13;97114.19;5119849;27;20027;-67
2022/11/23 08:42:19;;;;;;;7.10;2.78;;;;;;;5.82;72.57;97119.09;5115503;28;20024;-67
2022/11/23 08:44:45;;;;;;;6.78;2.25;;;;;;;5.92;73.83;97122.41;5093532;28;20040;-64
2022/11/23 08:47:10;;;;;;;7.95;2.88;;;;;;;5.87;75.04;97130.56;5082439;28;20047;-65
2022/11/23 08:49:35;;;;;;;6.50;2.40;;;;;;;5.83;75.50;97131.84;5095977;28;20807;-65
2022/11/23 08:52:01;;;;;;;7.32;2.42;;;;;;;5.87;75.42;97130.56;5101074;28;20061;-65
2022/11/23 08:54:26;;;;;;;8.48;2.80;;;;;;;5.78;75.44;97121.16;5093316;28;20377;-68
2022/11/23 08:56:52;;;;;;;7.00;2.70;;;;;;;5.81;76.98;97126.03;5094432;28;20359;-64
2022/11/23 08:59:17;;;;;;;7.45;2.13;;;;;;;5.81;73.06;97126.03;5078548;28;20027;-66
2022/11/23 09:01:44;;;;;;;5.57;1.90;;;;;;;5.83;72.91;97126.69;5099883;28;20024;-65
2022/11/23 09:04:09;;;;;;;6.07;1.75;;;;;;;5.91;74.11;97116.44;5097209;28;20592;-65
2022/11/23 09:06:35;;;;;;;7.32;2.00;;;;;;;5.97;74.62;97117.63;5109274;27;20064;-65
2022/11/23 09:09:00;;;;;;;6.70;1.88;;;;;;;5.96;74.88;97123.72;5090864;28;20138;-64
2022/11/23 09:11:26;;;;;;;10.98;2.60;;;;;;;6.02;75.90;97125.69;5074012;28;20023;-64
2022/11/23 09:13:51;;;;;;;11.52;2.10;;;;;;;6.01;75.74;97131.84;5086222;28;20122;-64
2022/11/23 09:16:17;;;;;;;5.05;1.45;;;;;;;6.04;76.46;97141.84;5076895;28;20099;-64
2022/11/23 09:18:43;;;;;;;6.90;1.88;;;;;;;6.06;75.28;97136.53;5103180;27;20077;-63
2022/11/23 09:21:09;;;;;;;5.82;1.80;;;;;;;6.05;77.18;97134.91;5086543;28;20429;-64
2022/11/23 09:23:35;;;;;;;4.95;1.90;;;;;;;6.01;77.68;97143.94;5086535;28;20034;-64
2022/11/23 09:26:02;;;;;;;7.78;1.88;;;;;;;6.02;76.94;97140.38;5103511;27;20578;-64
2022/11/23 09:28:28;;;;;;;4.97;1.67;;;;;;;6.07;76.65;97140.72;5075464;28;20034;-63
2022/11/23 09:30:54;;;;;;;4.32;1.40;;;;;;;6.11;75.94;97139.47;5102284;27;20039;-64
2022/11/23 09:33:20;;;;;;;4.13;1.42;;;;;;;6.08;75.50;97144.94;5091844;28;20031;-64
2022/11/23 09:35:46;;;;;;;4.30;1.52;;;;;;;5.53;72.33;97068.59;5091733;28;20031;-64
2022/11/23 09:38:30;;;;;;;4.45;1.20;;;;;;;5.95;73.40;97134.97;5092656;28;20210;-64
2022/11/23 09:41:11;;;;;;;4.05;1.00;;;;;;;6.02;72.94;97143.75;5065347;28;20092;-64
2022/11/23 09:43:43;;;;;;;3.97;1.00;;;;;;;6.11;74.01;97142.03;5100839;27;20080;-64
2022/11/23 09:46:20;;;;;;;3.40;0.77;;;;;;;6.16;72.47;97134.66;5065365;28;20034;-64
2022/11/23 09:49:01;;;;;;;2.58;0.73;;;;;;;6.08;67.77;97142.38;5083631;28;20286;-64
2022/11/23 09:51:27;;;;;;;4.10;0.88;;;;;;;6.19;65.81;97138.69;5082619;28;20032;-64
2022/11/23 09:53:59;;;;;;;5.75;0.60;;;;;;;6.06;61.81;97102.97;5082351;28;20035;-62
2022/11/23 09:56:32;;;;;;;1.15;0.30;;;;;;;6.50;61.57;97145.00;5099576;27;20482;-62
2022/11/23 09:59:01;;;;;;;1.35;0.38;;;;;;;6.65;62.29;97132.31;5100497;27;20027;-66
2022/11/23 10:01:26;;;;;;;1.98;0.50;;;;;;;6.52;60.95;97106.13;5065501;28;20024;-65
2022/11/23 10:03:52;;;;;;;2.55;0.80;;;;;;;6.93;59.66;97135.44;5084519;28;20097;-63
2022/11/23 10:06:30;;;;;;;2.50;0.90;;;;;;;7.06;58.18;97139.34;5088659;28;20420;-64
2022/11/23 10:09:26;;;;;;;2.92;0.70;;;;;;;7.19;59.04;97134.56;5068653;28;20700;-63
2022/11/23 10:12:30;;;;;;;1.83;0.50;;;;;;;7.30;57.22;97133.41;5101167;27;20051;-63
2022/11/23 10:15:12;;;;;;;3.95;0.50;;;;;;;7.42;55.41;97131.34;5082884;28;20802;-63
2022/11/23 10:18:09;;;;;;;1.58;0.50;;;;;;;7.29;55.22;97093.03;5099850;27;20089;-64
2022/11/23 10:20:46;;;;;;;2.10;0.35;;;;;;;7.60;55.83;97141.53;5082135;28;20020;-63
2022/11/23 10:23:37;;;;;;;1.15;0.30;;;;;;;7.65;56.21;97142.66;5084199;28;20052;-63
2022/11/23 10:26:03;;;;;;;2.78;0.75;;;;;;;7.66;57.39;97139.09;5099310;27;20076;-63
2022/11/23 10:28:29;;;;;;;1.27;0.52;;;;;;;7.76;58.18;97141.53;5100717;27;20910;-63
2022/11/23 10:31:16;;;;;;;3.72;1.40;;;;;;;7.91;59.00;97141.66;5092001;28;20036;-63
2022/11/23 10:33:48;;;;;;;3.42;1.00;;;;;;;8.08;58.02;97139.84;5083274;28;20059;-63
2022/11/23 10:36:13;;;;;;;2.25;0.70;;;;;;;7.84;58.43;97099.31;5083924;28;20040;-64
2022/11/23 10:38:39;;;;;;;4.18;1.00;;;;;;;8.06;58.23;97140.00;5081830;28;20031;-63
2022/11/23 10:41:08;;;;;;;3.13;0.82;;;;;;;8.08;57.80;97130.31;5084869;28;20032;-63
2022/11/23 10:44:01;;;;;;;4.28;0.90;;;;;;;8.09;58.84;97147.47;5086839;28;20476;-63
2022/11/23 10:46:38;;;;;;;6.78;2.65;;;;;;;7.91;59.48;97097.69;5099494;27;20028;-63
2022/11/23 10:49:26;;;;;;;2.55;0.70;;;;;;;8.31;55.91;97139.97;5084230;28;20042;-63
2022/11/23 10:51:55;;;;;;;0.47;0.25;;;;;;;8.39;54.01;97146.91;5091551;27;20039;-63
2022/11/23 10:54:22;;;;;;;2.15;0.70;;;;;;;8.46;55.70;97138.34;5088881;27;20988;-64
2022/11/23 10:56:50;;;;;;;2.75;0.75;;;;;;;8.53;56.89;97140.28;5099619;27;20024;-63
2022/11/23 10:59:36;;;;;;;1.67;0.40;;;;;;;8.63;52.79;97144.28;5099103;27;20058;-63
2022/11/23 11:02:17;;;;;;;1.88;0.55;;;;;;;8.33;54.27;97099.19;5085231;28;20114;-63
2022/11/23 11:04:44;;;;;;;1.90;0.60;;;;;;;8.49;53.50;97132.03;5082818;28;20330;-63
2022/11/23 11:07:30;;;;;;;1.63;0.45;;;;;;;8.50;51.93;97140.59;5088730;28;20103;-64
2022/11/23 11:10:00;;;;;;;3.25;0.52;;;;;;;8.49;52.32;97133.78;5073094;28;20052;-64
2022/11/23 11:12:27;;;;;;;1.88;0.60;;;;;;;8.64;51.70;97140.69;5079526;27;20056;-63
2022/11/23 11:15:02;;;;;;;1.25;0.40;;;;;;;8.69;51.11;97135.03;5091301;28;20576;-63
2022/11/23 11:17:32;;;;;;;1.73;0.40;;;;;;;8.70;50.11;97123.66;5063499;28;20653;-64
2022/11/23 11:19:59;;;;;;;0.75;0.30;;;;;;;8.83;48.34;97126.53;5084128;28;20575;-63
2022/11/23 11:22:34;;;;;;;1.63;0.40;;;;;;;8.86;48.62;97125.38;5083682;28;20032;-63
2022/11/23 11:25:02;;;;;;;1.83;0.50;;;;;;;8.56;49.61;97083.75;5094433;27;20039;-63
2022/11/23 11:27:29;;;;;;;1.48;0.50;;;;;;;8.82;49.53;97127.50;5097827;27;20754;-63
2022/11/23 11:30:00;;;;;;;1.48;0.40;;;;;;;8.38;49.66;97049.47;5089288;28;20039;-64
2022/11/23 11:32:51;;;;;;;1.88;0.75;;;;;;;8.79;48.24;97088.16;5099314;27;20032;-64
2022/11/23 11:35:26;;;;;;;1.25;0.40;;;;;;;9.10;48.03;97127.03;5071573;28;20050;-64
2022/11/23 11:37:55;;;;;;;0.77;0.32;;;;;;;9.16;48.13;97126.34;5066879;28;20089;-63
2022/11/23 11:40:59;;;;;;;1.98;0.40;;;;;;;9.27;45.71;97125.13;5100052;27;20039;-64
2022/11/23 11:43:29;;;;;;;1.05;0.30;;;;;;;9.35;45.32;97121.69;5061099;28;20042;-63